createdAt,value
2017-10-19T00:01:55.805Z,97938.41
2017-10-19T00:04:23.334Z,97930.07
2017-10-19T00:06:58.375Z,97925.44
2017-10-19T00:09:25.884Z,97925.16
2017-10-19T00:11:53.403Z,97920.69
2017-10-19T00:14:20.940Z,97919.38
2017-10-19T00:16:48.453Z,97926.93
2017-10-19T00:19:15.967Z,97928.73
2017-10-19T00:21:43.483Z,97926.45
2017-10-19T00:24:10.998Z,97922.98
2017-10-19T00:26:38.503Z,97919.56
2017-10-19T00:29:06.020Z,97912.48
2017-10-19T00:31:33.552Z,97923.59
2017-10-19T00:34:01.063Z,97922.36
2017-10-19T00:36:28.580Z,97916.88
2017-10-19T00:38:56.131Z,97914.19
2017-10-19T00:41:23.664Z,97920.69
2017-10-19T00:43:51.175Z,97921.50
2017-10-19T00:46:18.709Z,97920.78
2017-10-19T00:48:46.227Z,97920.97
2017-10-19T00:51:14.657Z,97919.37
2017-10-19T00:53:42.164Z,97914.61
2017-10-19T00:56:09.675Z,97917.60
2017-10-19T00:58:38.669Z,97914.23
2017-10-19T01:01:06.170Z,97919.36
2017-10-19T01:03:33.686Z,97917.09
2017-10-19T01:06:01.236Z,97908.92
2017-10-19T01:08:40.124Z,97907.59
2017-10-19T01:11:07.651Z,97914.83
2017-10-19T01:13:35.179Z,97914.13
2017-10-19T01:16:02.692Z,97904.84
2017-10-19T01:18:30.211Z,97908.30
2017-10-19T01:20:57.844Z,97912.64
2017-10-19T01:23:25.344Z,97900.47
2017-10-19T01:25:52.843Z,97902.11
2017-10-19T01:28:20.362Z,97902.80
2017-10-19T01:30:47.883Z,97895.42
2017-10-19T01:33:15.412Z,97896.23
2017-10-19T01:35:42.934Z,97896.19
2017-10-19T01:38:10.636Z,97896.55
2017-10-19T01:40:38.147Z,97894.77
2017-10-19T01:43:05.665Z,97892.66
2017-10-19T01:45:33.190Z,97895.38
2017-10-19T01:48:00.787Z,97891.75
2017-10-19T01:50:36.837Z,97888.50
2017-10-19T01:53:04.357Z,97891.89
2017-10-19T01:55:32.404Z,97890.55
2017-10-19T01:57:59.957Z,97894.19
2017-10-19T02:00:30.410Z,97892.55
2017-10-19T02:02:57.928Z,97884.39
2017-10-19T02:05:26.587Z,97875.37
2017-10-19T02:07:54.121Z,97881.97
2017-10-19T02:10:21.627Z,97881.17
2017-10-19T02:12:49.159Z,97885.08
2017-10-19T02:15:16.688Z,97895.51
2017-10-19T02:17:44.220Z,97892.16
2017-10-19T02:20:11.722Z,97880.24
2017-10-19T02:22:39.246Z,97883.59
2017-10-19T02:25:07.392Z,97881.59
2017-10-19T02:27:34.915Z,97881.84
2017-10-19T02:30:02.468Z,97877.55
2017-10-19T02:32:29.975Z,97883.02
2017-10-19T02:34:57.482Z,97877.13
2017-10-19T02:37:24.999Z,97884.08
2017-10-19T02:39:52.504Z,97880.61
2017-10-19T02:42:20.004Z,97886.00
2017-10-19T02:44:47.524Z,97878.48
2017-10-19T02:47:15.026Z,97875.42
2017-10-19T02:49:42.530Z,97881.97
2017-10-19T02:52:16.787Z,97884.74
2017-10-19T02:54:44.315Z,97887.73
2017-10-19T02:57:11.828Z,97885.69
2017-10-19T02:59:39.331Z,97889.92
2017-10-19T03:02:06.836Z,97885.20
2017-10-19T03:04:34.360Z,97889.16
2017-10-19T03:07:01.892Z,97902.36
2017-10-19T03:09:29.416Z,97890.93
2017-10-19T03:11:56.936Z,97887.58
2017-10-19T03:14:32.098Z,97887.69
2017-10-19T03:28:31.480Z,97896.34
2017-10-19T03:30:59.024Z,97889.27
2017-10-19T03:33:26.548Z,97886.30
2017-10-19T03:35:54.066Z,97881.37
2017-10-19T03:38:21.597Z,97880.08
2017-10-19T03:40:49.118Z,97880.44
2017-10-19T03:43:23.498Z,97881.87
2017-10-19T03:45:51.011Z,97879.63
2017-10-19T03:48:18.533Z,97874.04
2017-10-19T03:50:46.069Z,97876.61
2017-10-19T03:53:13.578Z,97874.67
2017-10-19T03:55:41.099Z,97867.94
2017-10-19T03:58:08.626Z,97869.11
2017-10-19T04:00:36.375Z,97862.12
2017-10-19T04:03:24.856Z,97870.41
2017-10-19T04:05:52.383Z,97868.97
2017-10-19T04:08:19.904Z,97867.33
2017-10-19T04:10:47.414Z,97866.52
2017-10-19T04:13:15.183Z,97862.13
2017-10-19T04:15:42.715Z,97863.61
2017-10-19T04:18:10.229Z,97865.66
2017-10-19T04:20:47.686Z,97876.92
2017-10-19T04:23:15.197Z,97867.47
2017-10-19T04:25:42.707Z,97869.24
2017-10-19T04:28:10.217Z,97874.02
2017-10-19T04:30:37.746Z,97863.34
2017-10-19T04:33:19.656Z,97854.97
2017-10-19T04:35:48.766Z,97843.78
2017-10-19T04:38:16.268Z,97848.05
2017-10-19T04:40:43.797Z,97852.55
2017-10-19T04:43:11.321Z,97858.70
2017-10-19T04:45:38.836Z,97853.11
2017-10-19T04:48:06.345Z,97854.08
2017-10-19T04:50:33.850Z,97862.50
2017-10-19T04:53:01.362Z,97853.36
2017-10-19T04:55:28.888Z,97848.62
2017-10-19T04:57:56.396Z,97851.02
2017-10-19T05:00:23.912Z,97847.43
2017-10-19T05:02:51.417Z,97849.02
2017-10-19T05:05:18.955Z,97847.16
2017-10-19T05:07:46.466Z,97849.39
2017-10-19T05:10:13.971Z,97849.05
2017-10-19T05:12:41.473Z,97847.33
2017-10-19T05:28:15.881Z,97877.06
2017-10-19T05:30:43.408Z,97869.55
2017-10-19T05:33:10.952Z,97871.49
2017-10-19T05:35:38.483Z,97858.91
2017-10-19T05:38:06.010Z,97859.34
2017-10-19T05:40:33.521Z,97854.11
2017-10-19T05:43:01.072Z,97861.07
2017-10-19T05:45:28.598Z,97863.22
2017-10-19T05:47:56.115Z,97861.99
2017-10-19T05:50:27.522Z,97870.29
2017-10-19T05:53:05.807Z,97862.82
2017-10-19T05:55:33.317Z,97853.72
2017-10-19T05:58:00.832Z,97856.08
2017-10-19T06:00:28.359Z,97869.91
2017-10-19T06:02:55.917Z,97868.04
2017-10-19T06:05:23.430Z,97867.64
2017-10-19T06:07:50.940Z,97871.63
2017-10-19T06:10:18.456Z,97871.66
2017-10-19T06:12:46.011Z,97873.73
2017-10-19T06:15:13.566Z,97869.95
2017-10-19T06:17:41.079Z,97869.53
2017-10-19T06:20:08.604Z,97876.05
2017-10-19T06:22:36.121Z,97868.22
2017-10-19T06:25:03.623Z,97873.03
2017-10-19T06:27:31.143Z,97874.30
2017-10-19T06:29:58.651Z,97873.05
2017-10-19T06:32:26.164Z,97878.41
2017-10-19T06:35:08.554Z,97869.27
2017-10-19T06:37:36.074Z,97873.77
2017-10-19T06:40:03.587Z,97869.73
2017-10-19T06:42:31.229Z,97870.34
2017-10-19T06:44:58.744Z,97881.32
2017-10-19T06:47:26.313Z,97881.66
2017-10-19T06:49:53.832Z,97892.35
2017-10-19T06:52:21.345Z,97892.13
2017-10-19T06:54:48.856Z,97896.87
2017-10-19T06:57:16.389Z,97900.06
2017-10-19T06:59:43.944Z,97911.80
2017-10-19T07:02:11.602Z,97909.80
2017-10-19T07:04:39.424Z,97907.03
2017-10-19T07:07:07.146Z,97900.43
2017-10-19T07:09:34.757Z,97908.01
2017-10-19T07:12:02.987Z,97903.84
2017-10-19T07:14:30.504Z,97912.84
2017-10-19T07:16:58.033Z,97907.28
2017-10-19T07:19:25.560Z,97905.90
2017-10-19T07:21:53.069Z,97906.38
2017-10-19T07:24:20.614Z,97901.61
2017-10-19T07:26:48.139Z,97907.75
2017-10-19T07:29:15.656Z,97912.37
2017-10-19T07:31:43.184Z,97913.33
2017-10-19T07:34:10.704Z,97916.84
2017-10-19T07:36:38.227Z,97913.97
2017-10-19T07:39:05.760Z,97914.86
2017-10-19T07:41:33.312Z,97922.73
2017-10-19T07:44:00.852Z,97924.35
2017-10-19T07:46:35.460Z,97922.69
2017-10-19T07:49:02.988Z,97922.48
2017-10-19T07:51:30.533Z,97927.08
2017-10-19T07:53:58.034Z,97923.80
2017-10-19T07:56:25.565Z,97922.88
2017-10-19T07:58:53.075Z,97931.30
2017-10-19T08:01:20.605Z,97932.75
2017-10-19T08:06:44.329Z,97934.64
2017-10-19T08:09:11.847Z,97932.98
2017-10-19T08:11:39.371Z,97934.50
2017-10-19T08:14:07.023Z,97942.14
2017-10-19T08:16:34.556Z,97936.87
2017-10-19T08:19:02.095Z,97935.00
2017-10-19T08:21:29.622Z,97936.94
2017-10-19T08:23:57.244Z,97940.86
2017-10-19T08:26:24.798Z,97943.59
2017-10-19T08:28:52.325Z,97938.92
2017-10-19T08:42:52.667Z,97946.06
2017-10-19T08:45:20.213Z,97937.63
2017-10-19T08:47:47.724Z,97937.06
2017-10-19T08:50:15.233Z,97941.17
2017-10-19T08:52:42.747Z,97945.31
2017-10-19T08:55:10.282Z,97946.75
2017-10-19T09:00:34.031Z,97953.44
2017-10-19T09:03:01.595Z,97944.63
2017-10-19T09:05:29.119Z,97950.81
2017-10-19T09:07:56.683Z,97952.41
2017-10-19T09:10:39.080Z,97953.38
2017-10-19T09:13:06.620Z,97951.23
2017-10-19T09:15:34.163Z,97952.72
2017-10-19T09:18:01.689Z,97953.13
2017-10-19T09:20:29.245Z,97945.57
2017-10-19T09:22:56.776Z,97946.59
2017-10-19T09:25:24.304Z,97945.48
2017-10-19T09:30:48.055Z,97937.60
2017-10-19T09:33:15.567Z,97942.30
2017-10-19T09:35:43.084Z,97945.14
2017-10-19T09:38:10.592Z,97943.64
2017-10-19T09:40:38.124Z,97948.25
2017-10-19T09:43:05.662Z,97945.38
2017-10-19T09:45:33.176Z,97945.80
2017-10-19T09:48:00.707Z,97936.13
2017-10-19T09:50:28.219Z,97933.36
2017-10-19T09:53:02.494Z,97939.03
2017-10-19T09:55:32.937Z,97946.89
2017-10-19T09:58:00.462Z,97951.39
2017-10-19T10:00:27.976Z,97950.22
2017-10-19T10:02:55.495Z,97946.89
2017-10-19T10:05:23.023Z,97939.42
2017-10-19T10:07:50.530Z,97942.09
2017-10-19T10:10:18.053Z,97928.16
2017-10-19T10:12:45.575Z,97936.94
2017-10-19T10:15:13.120Z,97949.53
2017-10-19T10:17:40.665Z,97956.91
2017-10-19T10:20:08.219Z,97960.38
2017-10-19T10:22:35.737Z,97957.00
2017-10-19T10:25:03.262Z,97955.67
2017-10-19T10:27:33.155Z,97959.03
2017-10-19T10:30:00.684Z,97949.52
2017-10-19T10:32:28.227Z,97948.20
2017-10-19T10:34:55.744Z,97955.12
2017-10-19T10:37:23.283Z,97945.19
2017-10-19T10:39:50.823Z,97943.47
2017-10-19T10:42:18.340Z,97937.74
2017-10-19T10:44:47.540Z,97931.09
2017-10-19T10:47:15.057Z,97936.07
2017-10-19T10:49:42.576Z,97933.47
2017-10-19T10:52:10.093Z,97944.50
2017-10-19T10:54:37.617Z,97936.02
2017-10-19T10:57:05.133Z,97931.56
2017-10-19T10:59:32.676Z,97929.17
2017-10-19T11:02:00.201Z,97926.44
2017-10-19T11:16:31.025Z,97903.59
2017-10-19T11:18:58.539Z,97906.34
2017-10-19T11:21:28.543Z,97901.45
2017-10-19T11:23:56.071Z,97892.26
2017-10-19T11:26:23.599Z,97890.30
2017-10-19T11:28:51.119Z,97880.15
2017-10-19T11:31:18.636Z,97880.55
2017-10-19T11:33:52.976Z,97881.62
2017-10-19T11:36:20.501Z,97879.22
2017-10-19T11:38:48.029Z,97874.78
2017-10-19T11:41:15.547Z,97865.86
2017-10-19T11:43:43.689Z,97869.75
2017-10-19T11:46:11.216Z,97859.08
2017-10-19T11:48:38.733Z,97864.56
2017-10-19T11:51:06.276Z,97849.56
2017-10-19T11:53:33.811Z,97846.64
2017-10-19T11:56:01.325Z,97844.84
2017-10-19T11:58:28.895Z,97842.45
2017-10-19T12:00:56.423Z,97833.95
2017-10-19T12:03:23.938Z,97821.14
2017-10-19T12:05:51.454Z,97825.67
2017-10-19T12:08:18.989Z,97816.27
2017-10-19T12:10:46.499Z,97812.92
2017-10-19T12:13:16.107Z,97817.64
2017-10-19T12:15:43.630Z,97820.15
2017-10-19T12:18:11.148Z,97815.31
2017-10-19T12:23:34.893Z,97814.02
2017-10-19T12:26:02.422Z,97797.45
2017-10-19T12:28:30.032Z,97796.75
2017-10-19T12:30:57.600Z,97801.45
2017-10-19T12:33:25.120Z,97792.76
2017-10-19T12:47:25.327Z,97784.36
2017-10-19T12:49:52.842Z,97781.63
2017-10-19T12:52:20.367Z,97777.52
2017-10-19T12:54:47.904Z,97775.91
2017-10-19T12:57:15.420Z,97780.52
2017-10-19T12:59:42.953Z,97772.67
2017-10-19T13:02:10.484Z,97772.89
2017-10-19T13:04:38.019Z,97762.53
2017-10-19T13:07:08.811Z,97765.58
2017-10-19T13:09:36.322Z,97760.45
2017-10-19T13:12:03.831Z,97762.02
2017-10-19T13:14:31.377Z,97755.17
2017-10-19T13:16:58.886Z,97753.93
2017-10-19T13:19:35.440Z,97749.17
2017-10-19T13:22:03.004Z,97748.64
2017-10-19T13:24:30.509Z,97741.11
2017-10-19T13:26:58.031Z,97744.77
2017-10-19T13:29:25.586Z,97745.00
2017-10-19T13:31:53.094Z,97744.75
2017-10-19T13:34:20.616Z,97742.34
2017-10-19T13:36:48.218Z,97737.36
2017-10-19T13:39:15.745Z,97733.92
2017-10-19T13:41:43.270Z,97736.05
2017-10-19T13:44:10.813Z,97733.48
2017-10-19T13:46:38.344Z,97738.55
2017-10-19T13:49:05.863Z,97742.83
2017-10-19T13:51:33.390Z,97733.48
2017-10-19T14:05:41.215Z,97728.84
2017-10-19T14:08:22.094Z,97725.11
2017-10-19T14:10:49.604Z,97723.47
2017-10-19T14:13:30.660Z,97724.03
2017-10-19T14:15:58.191Z,97724.23
2017-10-19T14:18:25.735Z,97725.50
2017-10-19T14:20:53.260Z,97723.52
2017-10-19T14:23:20.769Z,97724.59
2017-10-19T14:25:48.288Z,97721.22
2017-10-19T14:28:15.915Z,97714.84
2017-10-19T14:30:43.476Z,97718.50
2017-10-19T14:33:11.000Z,97716.22
2017-10-19T14:35:38.515Z,97713.28
2017-10-19T14:38:06.079Z,97713.23
2017-10-19T14:40:33.595Z,97712.84
2017-10-19T14:43:01.116Z,97710.06
2017-10-19T14:45:43.524Z,97714.98
2017-10-19T14:48:11.506Z,97717.26
2017-10-19T14:50:39.017Z,97716.13
2017-10-19T14:53:06.561Z,97715.16
2017-10-19T14:55:34.087Z,97710.70
2017-10-19T14:58:01.601Z,97705.13
2017-10-19T15:00:29.133Z,97700.00
2017-10-19T15:02:56.675Z,97694.86
2017-10-19T15:05:24.201Z,97693.58
2017-10-19T15:07:51.770Z,97685.53
2017-10-19T15:10:26.365Z,97688.42
2017-10-19T15:12:53.904Z,97693.47
2017-10-19T15:15:21.409Z,97685.53
2017-10-19T15:17:53.347Z,97684.44
2017-10-19T15:20:20.855Z,97690.25
2017-10-19T15:22:48.392Z,97678.05
2017-10-19T15:25:15.915Z,97681.69
2017-10-19T15:27:43.460Z,97675.17
2017-10-19T15:30:10.984Z,97672.47
2017-10-19T15:32:38.511Z,97675.73
2017-10-19T15:35:06.034Z,97686.16
2017-10-19T15:37:33.570Z,97680.70
2017-10-19T15:40:01.104Z,97691.77
2017-10-19T15:42:28.617Z,97695.66
2017-10-19T15:44:56.123Z,97694.97
2017-10-19T15:47:23.704Z,97697.55
2017-10-19T15:49:51.245Z,97700.98
2017-10-19T15:52:18.757Z,97699.83
2017-10-19T15:54:46.272Z,97700.27
2017-10-19T15:57:13.820Z,97703.55
2017-10-19T15:59:41.454Z,97691.17
2017-10-19T16:02:09.022Z,97704.30
2017-10-19T16:16:18.679Z,97709.95
2017-10-19T16:21:42.536Z,97708.34
2017-10-19T16:24:10.182Z,97707.00
2017-10-19T16:26:37.712Z,97717.82
2017-10-19T16:29:05.217Z,97719.73
2017-10-19T16:31:32.772Z,97723.10
2017-10-19T16:34:00.283Z,97719.50
2017-10-19T16:36:27.820Z,97718.07
2017-10-19T16:38:56.061Z,97716.59
2017-10-19T16:41:23.605Z,97716.76
2017-10-19T16:43:51.137Z,97716.33
2017-10-19T16:46:18.660Z,97723.68
2017-10-19T16:48:46.216Z,97728.78
2017-10-19T16:51:13.756Z,97727.69
2017-10-19T16:53:41.287Z,97731.83
2017-10-19T17:07:58.007Z,97727.98
2017-10-19T17:10:25.700Z,97729.01
2017-10-19T17:12:53.286Z,97734.03
2017-10-19T17:15:20.878Z,97741.20
2017-10-19T17:17:48.667Z,97737.81
2017-10-19T17:20:16.392Z,97740.71
2017-10-19T17:22:44.192Z,97747.83
2017-10-19T17:25:12.061Z,97756.19
2017-10-19T17:27:40.032Z,97756.51
2017-10-19T17:30:07.865Z,97757.28
2017-10-19T17:32:35.674Z,97756.39
2017-10-19T17:35:03.332Z,97756.33
2017-10-19T17:37:30.982Z,97750.39
2017-10-19T17:40:01.265Z,97751.05
2017-10-19T17:42:28.819Z,97750.99
2017-10-19T17:44:56.398Z,97749.98
2017-10-19T17:47:24.214Z,97752.69
2017-10-19T17:49:52.039Z,97751.41
2017-10-19T17:52:19.917Z,97745.81
2017-10-19T17:54:47.785Z,97745.48
2017-10-19T17:57:15.651Z,97745.63
2017-10-19T17:59:43.505Z,97746.78
2017-10-19T18:02:14.661Z,97737.31
2017-10-19T18:04:42.428Z,97737.76
2017-10-19T18:07:10.186Z,97736.38
2017-10-19T18:09:37.847Z,97741.32
2017-10-19T18:12:05.429Z,97747.93
2017-10-19T18:14:32.998Z,97742.81
2017-10-19T18:17:00.835Z,97737.47
2017-10-19T18:31:01.106Z,97736.56
2017-10-19T18:33:28.713Z,97731.38
2017-10-19T18:35:56.554Z,97736.41
2017-10-19T18:38:24.318Z,97740.70
2017-10-19T18:40:52.165Z,97745.36
2017-10-19T18:43:20.163Z,97738.02
2017-10-19T18:45:48.017Z,97732.66
2017-10-19T18:48:15.958Z,97726.91
2017-10-19T18:50:43.853Z,97725.31
2017-10-19T18:53:11.924Z,97724.99
2017-10-19T18:55:39.994Z,97732.75
2017-10-19T18:58:07.860Z,97726.89
2017-10-19T19:00:35.832Z,97724.73
2017-10-19T19:03:03.798Z,97727.78
2017-10-19T19:05:31.868Z,97727.06
2017-10-19T19:07:59.835Z,97728.31
2017-10-19T19:10:27.906Z,97724.51
2017-10-19T19:13:03.349Z,97723.88
2017-10-19T19:15:31.329Z,97732.47
2017-10-19T19:17:59.289Z,97726.45
2017-10-19T19:20:27.256Z,97729.33
2017-10-19T19:22:55.222Z,97718.58
2017-10-19T19:25:23.302Z,97721.50
2017-10-19T19:27:51.160Z,97721.05
2017-10-19T19:30:19.241Z,97723.20
2017-10-19T19:32:47.204Z,97715.54
2017-10-19T19:35:15.099Z,97724.64
2017-10-19T19:37:44.061Z,97724.09
2017-10-19T19:40:12.133Z,97730.16
2017-10-19T19:42:40.200Z,97733.05
2017-10-19T19:45:11.139Z,97734.41
2017-10-19T19:47:39.005Z,97738.05
2017-10-19T19:50:06.872Z,97742.18
2017-10-19T19:52:34.843Z,97746.84
2017-10-19T19:55:02.709Z,97746.67
2017-10-19T19:57:30.785Z,97747.48
2017-10-19T19:59:58.644Z,97746.78
2017-10-19T20:02:26.510Z,97750.95
2017-10-19T20:16:27.112Z,97776.10
2017-10-19T20:19:01.233Z,97773.11
2017-10-19T20:21:29.089Z,97775.48
2017-10-19T20:37:18.026Z,97785.00
2017-10-19T20:39:47.668Z,97786.64
2017-10-19T20:45:11.415Z,97776.30
2017-10-19T20:47:38.946Z,97774.40
2017-10-19T20:50:21.338Z,97767.03
2017-10-19T20:52:48.880Z,97770.34
2017-10-19T20:55:16.411Z,97772.44
2017-10-19T20:57:43.919Z,97768.30
2017-10-19T21:00:11.429Z,97769.48
2017-10-19T21:02:38.973Z,97774.03
2017-10-19T21:05:06.536Z,97770.70
2017-10-19T21:19:15.840Z,97761.09
2017-10-19T21:21:43.392Z,97749.24
2017-10-19T21:24:10.918Z,97754.02
2017-10-19T21:26:38.424Z,97751.25
2017-10-19T21:29:05.939Z,97749.97
2017-10-19T21:31:33.472Z,97753.14
2017-10-19T21:34:01.007Z,97747.80
2017-10-19T21:36:28.541Z,97741.94
2017-10-19T21:38:56.062Z,97741.83
2017-10-19T21:41:23.582Z,97747.99
2017-10-19T21:43:51.130Z,97741.09
2017-10-19T21:46:18.640Z,97736.45
2017-10-19T21:48:46.176Z,97730.30
2017-10-19T21:51:13.687Z,97734.75
2017-10-19T21:53:41.209Z,97728.17
2017-10-19T21:56:08.727Z,97727.02
2017-10-19T21:58:37.107Z,97731.11
2017-10-19T22:01:04.614Z,97729.93
2017-10-19T22:03:32.143Z,97729.93
2017-10-19T22:05:59.655Z,97732.41
2017-10-19T22:08:27.177Z,97733.11
2017-10-19T22:10:54.714Z,97721.64
2017-10-19T22:13:22.246Z,97722.30
2017-10-19T22:15:49.788Z,97719.86
2017-10-19T22:18:17.315Z,97722.45
2017-10-19T22:20:44.842Z,97728.70
2017-10-19T22:23:12.355Z,97719.97
2017-10-19T22:25:53.218Z,97722.20
2017-10-19T22:45:40.070Z,97700.64
2017-10-19T22:48:07.592Z,97699.14
2017-10-19T22:50:35.108Z,97694.14
2017-10-19T22:53:02.705Z,97693.00
2017-10-19T22:55:30.239Z,97685.95
2017-10-19T22:57:57.751Z,97702.89
2017-10-19T23:00:25.291Z,97713.77
2017-10-19T23:02:57.513Z,97721.27
2017-10-19T23:05:25.021Z,97723.59
2017-10-19T23:07:52.538Z,97726.96
2017-10-19T23:10:20.058Z,97725.25
2017-10-19T23:12:50.349Z,97720.91
2017-10-19T23:15:17.872Z,97727.80
2017-10-19T23:17:45.404Z,97733.37
2017-10-19T23:20:12.963Z,97726.55
2017-10-19T23:22:40.517Z,97737.73
2017-10-19T23:25:09.518Z,97734.56
2017-10-19T23:27:37.086Z,97728.20
2017-10-19T23:30:04.604Z,97727.33
2017-10-19T23:32:32.129Z,97735.95
2017-10-19T23:34:59.649Z,97734.42
2017-10-19T23:37:27.204Z,97736.91
2017-10-19T23:39:54.715Z,97730.84
2017-10-19T23:42:22.237Z,97735.58
2017-10-19T23:44:49.752Z,97735.36
2017-10-19T23:58:51.197Z,97740.18
